createdAt,value
2023-04-26T00:00:15.959Z,234.97
2023-04-26T00:01:16.144Z,232.53
2023-04-26T00:02:14.987Z,232.16
2023-04-26T00:03:16.196Z,232.25
2023-04-26T00:04:15.190Z,234.01
2023-04-26T00:05:15.271Z,235.44
2023-04-26T00:06:16.014Z,233.72
2023-04-26T00:07:16.083Z,234.86
2023-04-26T00:08:16.068Z,233.72
2023-04-26T00:09:15.141Z,235.28
2023-04-26T00:10:16.152Z,233.00
2023-04-26T00:11:15.159Z,236.44
2023-04-26T00:12:16.176Z,232.46
2023-04-26T00:13:15.243Z,235.68
2023-04-26T00:14:15.171Z,233.52
2023-04-26T00:15:15.252Z,231.70
2023-04-26T00:16:15.242Z,233.22
2023-04-26T00:17:16.178Z,232.14
2023-04-26T00:18:16.219Z,229.17
2023-04-26T00:19:16.234Z,232.74
2023-04-26T00:20:16.289Z,233.60
2023-04-26T00:21:16.330Z,231.73
2023-04-26T00:22:16.368Z,230.71
2023-04-26T00:23:16.421Z,229.45
2023-04-26T00:24:16.453Z,233.49
2023-04-26T00:25:16.504Z,231.26
2023-04-26T00:26:16.551Z,229.56
2023-04-26T00:27:16.583Z,230.35
2023-04-26T00:28:15.606Z,231.92
2023-04-26T00:29:16.783Z,234.27
2023-04-26T00:30:16.703Z,231.26
2023-04-26T00:31:15.824Z,233.50
2023-04-26T00:32:16.796Z,234.23
2023-04-26T00:33:16.833Z,234.27
2023-04-26T00:34:16.864Z,235.94
2023-04-26T00:35:16.916Z,231.95
2023-04-26T00:36:16.975Z,235.24
2023-04-26T00:37:17.016Z,231.08
2023-04-26T00:38:17.055Z,231.24
2023-04-26T00:39:16.013Z,235.30
2023-04-26T00:40:17.049Z,233.06
2023-04-26T00:41:16.997Z,231.14
2023-04-26T00:42:17.001Z,228.06
2023-04-26T00:43:16.012Z,233.24
2023-04-26T00:44:15.985Z,232.80
2023-04-26T00:45:16.016Z,230.75
2023-04-26T00:46:16.073Z,232.46
2023-04-26T00:47:15.978Z,229.51
2023-04-26T00:48:16.972Z,230.52
2023-04-26T00:49:15.995Z,230.52
2023-04-26T00:50:16.976Z,226.72
2023-04-26T00:51:16.975Z,228.43
2023-04-26T00:52:16.960Z,230.59
2023-04-26T00:53:16.977Z,230.02
2023-04-26T00:54:16.933Z,229.09
2023-04-26T00:55:15.949Z,230.82
2023-04-26T00:56:16.972Z,234.54
2023-04-26T00:57:16.941Z,230.83
2023-04-26T00:58:15.954Z,232.17
2023-04-26T00:59:15.935Z,230.78
2023-04-26T01:00:16.923Z,231.13
2023-04-26T01:01:17.004Z,229.96
2023-04-26T01:02:16.983Z,232.72
2023-04-26T01:03:17.062Z,232.44
2023-04-26T01:04:17.045Z,232.31
2023-04-26T01:05:15.888Z,232.34
2023-04-26T01:06:15.893Z,232.72
2023-04-26T01:07:16.890Z,232.26
2023-04-26T01:08:16.911Z,229.45
2023-04-26T01:09:16.485Z,231.75
2023-04-26T01:10:16.495Z,230.17
2023-04-26T01:11:16.953Z,229.63
2023-04-26T01:12:16.962Z,231.10
2023-04-26T01:13:16.962Z,231.38
2023-04-26T01:14:16.992Z,230.63
2023-04-26T01:15:15.955Z,230.63
2023-04-26T01:16:16.989Z,227.53
2023-04-26T01:17:16.224Z,228.87
2023-04-26T01:18:17.398Z,231.38
2023-04-26T01:19:16.938Z,228.01
2023-04-26T01:20:15.946Z,227.70
2023-04-26T01:21:16.916Z,229.54
2023-04-26T01:22:15.929Z,229.33
2023-04-26T01:23:16.928Z,232.56
2023-04-26T01:24:16.930Z,224.97
2023-04-26T01:25:16.915Z,230.24
2023-04-26T01:26:16.940Z,228.91
2023-04-26T01:27:15.921Z,230.04
2023-04-26T01:28:16.926Z,229.92
2023-04-26T01:29:16.981Z,229.90
2023-04-26T01:30:17.038Z,228.47
2023-04-26T01:31:17.017Z,230.35
2023-04-26T01:32:17.094Z,228.70
2023-04-26T01:33:16.936Z,230.99
2023-04-26T01:34:16.902Z,228.66
2023-04-26T01:35:15.916Z,227.79
2023-04-26T01:36:16.920Z,230.32
2023-04-26T01:37:16.923Z,226.19
2023-04-26T01:38:15.932Z,227.33
2023-04-26T01:39:16.926Z,228.32
2023-04-26T01:40:16.923Z,227.32
2023-04-26T01:41:16.929Z,227.28
2023-04-26T01:42:16.914Z,230.64
2023-04-26T01:43:16.961Z,231.46
2023-04-26T01:44:16.930Z,227.26
2023-04-26T01:45:15.918Z,229.05
2023-04-26T01:46:16.992Z,229.92
2023-04-26T01:47:16.909Z,227.32
2023-04-26T01:48:16.910Z,228.91
2023-04-26T01:49:15.931Z,227.10
2023-04-26T01:50:16.899Z,228.31
2023-04-26T01:51:16.921Z,226.79
2023-04-26T01:52:16.912Z,228.05
2023-04-26T01:53:16.909Z,224.09
2023-04-26T01:54:16.905Z,228.84
2023-04-26T01:55:15.924Z,225.28
2023-04-26T01:56:16.977Z,226.99
2023-04-26T01:57:15.916Z,226.48
2023-04-26T01:58:16.936Z,229.77
2023-04-26T01:59:16.948Z,227.44
2023-04-26T02:00:18.633Z,225.12
2023-04-26T02:01:16.976Z,233.14
2023-04-26T02:02:16.964Z,229.07
2023-04-26T02:03:16.023Z,232.33
2023-04-26T02:04:16.909Z,227.51
2023-04-26T02:05:15.963Z,227.47
2023-04-26T02:06:16.910Z,227.36
2023-04-26T02:07:16.908Z,228.22
2023-04-26T02:08:15.891Z,226.17
2023-04-26T02:09:16.934Z,227.66
2023-04-26T02:10:16.873Z,226.49
2023-04-26T02:11:16.896Z,228.56
2023-04-26T02:12:15.857Z,228.82
2023-04-26T02:13:15.843Z,225.29
2023-04-26T02:14:16.897Z,225.06
2023-04-26T02:15:16.863Z,227.50
2023-04-26T02:16:16.951Z,228.43
2023-04-26T02:17:16.831Z,225.35
2023-04-26T02:18:16.821Z,226.66
2023-04-26T02:19:16.812Z,227.32
2023-04-26T02:20:15.802Z,231.00
2023-04-26T02:21:16.856Z,227.04
2023-04-26T02:22:15.787Z,228.21
2023-04-26T02:23:15.849Z,227.55
2023-04-26T02:24:16.794Z,228.21
2023-04-26T02:25:16.789Z,225.38
2023-04-26T02:26:16.780Z,226.65
2023-04-26T02:27:15.762Z,229.83
2023-04-26T02:28:16.745Z,226.57
2023-04-26T02:29:15.754Z,226.94
2023-04-26T02:30:16.752Z,226.58
2023-04-26T02:31:16.776Z,229.11
2023-04-26T02:32:16.721Z,226.55
2023-04-26T02:33:16.706Z,225.06
2023-04-26T02:34:15.707Z,224.59
2023-04-26T02:35:16.703Z,225.19
2023-04-26T02:36:16.743Z,225.40
2023-04-26T02:37:15.783Z,225.56
2023-04-26T02:38:15.692Z,226.83
2023-04-26T02:39:16.702Z,225.69
2023-04-26T02:40:15.668Z,224.55
2023-04-26T02:41:15.658Z,228.00
2023-04-26T02:42:15.670Z,224.41
2023-04-26T02:43:16.670Z,226.11
2023-04-26T02:44:16.648Z,224.54
2023-04-26T02:45:15.624Z,225.22
2023-04-26T02:46:17.386Z,222.60
2023-04-26T02:47:15.640Z,224.93
2023-04-26T02:48:15.622Z,224.65
2023-04-26T02:49:15.593Z,224.79
2023-04-26T02:50:16.601Z,225.65
2023-04-26T02:51:16.584Z,226.13
2023-04-26T02:52:16.599Z,223.75
2023-04-26T02:53:15.616Z,222.30
2023-04-26T02:54:15.580Z,223.56
2023-04-26T02:55:16.633Z,226.79
2023-04-26T02:56:16.543Z,223.95
2023-04-26T02:57:16.540Z,225.90
2023-04-26T02:58:15.545Z,222.66
2023-04-26T02:59:16.575Z,225.23
2023-04-26T03:00:16.551Z,224.29
2023-04-26T03:01:15.568Z,224.23
2023-04-26T03:02:15.614Z,225.79
2023-04-26T03:03:15.732Z,224.79
2023-04-26T03:04:16.701Z,226.45
2023-04-26T03:05:16.504Z,225.20
2023-04-26T03:06:16.487Z,225.19
2023-04-26T03:07:15.489Z,223.66
2023-04-26T03:08:15.513Z,224.12
2023-04-26T03:09:16.476Z,223.91
2023-04-26T03:10:16.483Z,224.38
2023-04-26T03:11:15.434Z,223.90
2023-04-26T03:12:16.474Z,224.67
2023-04-26T03:13:15.432Z,225.33
2023-04-26T03:14:15.440Z,223.97
2023-04-26T03:15:15.432Z,224.87
2023-04-26T03:16:15.466Z,225.82
2023-04-26T03:17:16.458Z,225.19
2023-04-26T03:18:15.398Z,225.52
2023-04-26T03:19:15.441Z,225.28
2023-04-26T03:20:16.433Z,222.70
2023-04-26T03:21:16.379Z,221.61
2023-04-26T03:22:15.370Z,222.42
2023-04-26T03:23:16.383Z,222.68
2023-04-26T03:24:15.386Z,221.98
2023-04-26T03:25:16.390Z,226.26
2023-04-26T03:26:16.388Z,225.57
2023-04-26T03:27:16.342Z,225.19
2023-04-26T03:28:16.380Z,223.98
2023-04-26T03:29:16.332Z,224.48
2023-04-26T03:30:16.364Z,224.05
2023-04-26T03:31:16.322Z,227.11
2023-04-26T03:32:16.382Z,223.25
2023-04-26T03:33:16.299Z,224.89
2023-04-26T03:34:15.282Z,230.84
2023-04-26T03:35:16.275Z,231.11
2023-04-26T03:36:16.367Z,226.99
2023-04-26T03:37:15.287Z,229.68
2023-04-26T03:38:15.308Z,232.86
2023-04-26T03:39:16.245Z,236.18
2023-04-26T03:40:16.232Z,236.28
2023-04-26T03:41:16.258Z,240.34
2023-04-26T03:42:15.237Z,242.13
2023-04-26T03:43:16.233Z,241.97
2023-04-26T03:44:16.221Z,248.68
2023-04-26T03:45:16.239Z,247.60
2023-04-26T03:46:16.260Z,246.82
2023-04-26T03:47:15.229Z,248.52
2023-04-26T03:48:16.203Z,246.11
2023-04-26T03:49:15.230Z,248.72
2023-04-26T03:50:15.190Z,246.74
2023-04-26T03:51:16.197Z,244.85
2023-04-26T03:52:16.221Z,247.02
2023-04-26T03:53:16.193Z,250.00
2023-04-26T03:54:16.185Z,246.68
2023-04-26T03:55:16.234Z,244.05
2023-04-26T03:56:15.236Z,244.90
2023-04-26T03:57:15.256Z,247.67
2023-04-26T03:58:15.273Z,240.33
2023-04-26T03:59:16.252Z,242.20
2023-04-26T04:00:15.266Z,242.72
2023-04-26T04:01:15.290Z,239.45
2023-04-26T04:02:15.396Z,243.28
2023-04-26T04:03:15.391Z,240.86
2023-04-26T04:04:16.505Z,244.44
2023-04-26T04:05:15.505Z,242.40
2023-04-26T04:06:15.339Z,242.87
2023-04-26T04:07:15.387Z,239.45
2023-04-26T04:08:15.355Z,237.20
2023-04-26T04:09:15.369Z,236.16
2023-04-26T04:10:16.361Z,236.83
2023-04-26T04:11:16.673Z,235.42
2023-04-26T04:12:16.417Z,233.66
2023-04-26T04:13:16.430Z,238.83
2023-04-26T04:14:16.512Z,236.82
2023-04-26T04:15:15.480Z,236.52
2023-04-26T04:16:15.523Z,238.29
2023-04-26T04:17:15.539Z,246.42
2023-04-26T04:18:16.630Z,242.72
2023-04-26T04:19:15.569Z,243.01
2023-04-26T04:20:16.606Z,238.97
2023-04-26T04:21:16.632Z,237.99
2023-04-26T04:22:15.662Z,237.01
2023-04-26T04:23:15.689Z,237.24
2023-04-26T04:24:16.720Z,235.29
2023-04-26T04:25:16.726Z,231.92
2023-04-26T04:26:16.773Z,239.25
2023-04-26T04:27:16.803Z,242.79
2023-04-26T04:28:17.022Z,243.47
2023-04-26T04:29:16.883Z,240.60
2023-04-26T04:30:15.885Z,235.18
2023-04-26T04:31:16.955Z,240.65
2023-04-26T04:32:16.972Z,238.40
2023-04-26T04:33:16.990Z,233.46
2023-04-26T04:34:15.999Z,238.45
2023-04-26T04:35:17.003Z,234.11
2023-04-26T04:36:17.049Z,229.85
2023-04-26T04:37:17.110Z,229.64
2023-04-26T04:38:17.142Z,234.91
2023-04-26T04:39:16.252Z,245.97
2023-04-26T04:40:17.234Z,240.46
2023-04-26T04:41:17.308Z,241.66
2023-04-26T04:42:17.320Z,240.21
2023-04-26T04:43:16.382Z,244.61
2023-04-26T04:44:17.416Z,245.90
2023-04-26T04:45:17.469Z,244.66
2023-04-26T04:46:17.497Z,244.89
2023-04-26T04:47:17.499Z,241.70
2023-04-26T04:48:17.554Z,238.44
2023-04-26T04:49:17.586Z,236.98
2023-04-26T04:50:17.643Z,234.03
2023-04-26T04:51:16.672Z,236.07
2023-04-26T04:52:18.802Z,236.17
2023-04-26T04:53:17.738Z,234.47
2023-04-26T04:54:17.823Z,238.27
2023-04-26T04:55:17.873Z,239.74
2023-04-26T04:56:17.932Z,236.66
2023-04-26T04:57:17.941Z,234.00
2023-04-26T04:58:17.988Z,235.67
2023-04-26T04:59:18.025Z,240.65
2023-04-26T05:00:18.066Z,237.07
2023-04-26T05:01:18.217Z,233.19
2023-04-26T05:02:18.313Z,233.24
2023-04-26T05:03:17.434Z,235.89
2023-04-26T05:04:18.509Z,239.13
2023-04-26T05:05:18.390Z,240.11
2023-04-26T05:06:18.499Z,236.59
2023-04-26T05:07:17.502Z,236.29
2023-04-26T05:08:17.602Z,237.24
2023-04-26T05:09:18.656Z,235.56
2023-04-26T05:10:17.729Z,233.35
2023-04-26T05:11:17.752Z,234.66
2023-04-26T05:12:18.849Z,235.31
2023-04-26T05:13:18.886Z,238.71
2023-04-26T05:14:18.953Z,237.44
2023-04-26T05:15:19.033Z,236.44
2023-04-26T05:16:19.158Z,237.77
2023-04-26T05:17:18.185Z,236.79
2023-04-26T05:18:19.204Z,238.98
2023-04-26T05:19:19.270Z,240.02
2023-04-26T05:20:18.345Z,238.54
2023-04-26T05:21:19.404Z,238.66
2023-04-26T05:22:19.468Z,241.69
2023-04-26T05:23:19.525Z,239.67
2023-04-26T05:24:18.595Z,239.35
2023-04-26T05:25:20.255Z,248.16
2023-04-26T05:26:18.659Z,247.59
2023-04-26T05:27:19.679Z,243.56
2023-04-26T05:28:18.677Z,246.82
2023-04-26T05:29:18.703Z,245.56
2023-04-26T05:30:18.627Z,244.18
2023-04-26T05:31:19.644Z,242.00
2023-04-26T05:32:18.700Z,239.19
2023-04-26T05:33:19.786Z,237.38
2023-04-26T05:34:19.088Z,239.16
2023-04-26T05:35:20.037Z,233.64
2023-04-26T05:36:19.605Z,239.82
2023-04-26T05:37:18.572Z,234.82
2023-04-26T05:38:19.766Z,239.88
2023-04-26T05:39:19.692Z,236.54
2023-04-26T05:40:19.568Z,229.11
2023-04-26T05:41:18.654Z,234.57
2023-04-26T05:42:18.556Z,227.00
2023-04-26T05:43:19.063Z,227.48
2023-04-26T05:44:19.821Z,225.67
2023-04-26T05:45:19.854Z,224.37
2023-04-26T05:46:20.192Z,227.73
2023-04-26T05:47:19.101Z,230.01
2023-04-26T05:48:20.263Z,230.18
2023-04-26T05:49:20.050Z,229.04
2023-04-26T05:50:20.101Z,229.00
2023-04-26T05:51:20.216Z,228.02
2023-04-26T05:52:19.817Z,238.01
2023-04-26T05:53:19.926Z,230.82
2023-04-26T05:54:20.095Z,235.54
2023-04-26T05:55:20.211Z,234.34
2023-04-26T05:56:20.239Z,237.79
2023-04-26T05:58:20.613Z,235.72
2023-04-26T05:59:20.581Z,242.57
2023-04-26T06:00:20.317Z,236.52
2023-04-26T06:01:20.364Z,234.13
2023-04-26T06:02:21.003Z,235.72
2023-04-26T06:03:21.017Z,241.68
2023-04-26T06:04:20.250Z,240.92
2023-04-26T06:05:20.830Z,247.34
2023-04-26T06:06:20.512Z,248.56
2023-04-26T06:07:20.502Z,244.23
2023-04-26T06:08:20.278Z,249.52
2023-04-26T06:09:20.319Z,248.67
2023-04-26T06:10:20.361Z,247.04
2023-04-26T06:11:19.417Z,248.19
2023-04-26T06:12:19.495Z,248.73
2023-04-26T06:13:20.488Z,250.00
2023-04-26T06:14:29.984Z,250.00
2023-04-26T06:15:20.566Z,250.34
2023-04-26T06:16:20.620Z,252.17
2023-04-26T06:17:19.676Z,254.52
2023-04-26T06:18:20.505Z,260.36
2023-04-26T06:19:19.517Z,270.78
2023-04-26T06:20:20.482Z,253.38
2023-04-26T06:21:20.517Z,248.46
2023-04-26T06:22:20.495Z,250.00
2023-04-26T06:23:20.507Z,248.98
2023-04-26T06:24:20.455Z,247.99
2023-04-26T06:25:20.473Z,247.50
2023-04-26T06:26:19.443Z,249.32
2023-04-26T06:27:19.444Z,249.42
2023-04-26T06:28:19.448Z,250.00
2023-04-26T06:29:19.481Z,249.29
2023-04-26T06:30:19.436Z,250.00
2023-04-26T06:31:20.433Z,248.62
2023-04-26T06:32:20.416Z,247.57
2023-04-26T06:33:19.402Z,249.04
2023-04-26T06:34:20.409Z,249.73
2023-04-26T06:35:20.647Z,246.46
2023-04-26T06:36:20.526Z,249.82
2023-04-26T06:37:20.424Z,249.55
2023-04-26T06:38:20.597Z,247.95
2023-04-26T06:39:20.404Z,248.95
2023-04-26T06:40:20.363Z,249.24
2023-04-26T06:41:19.622Z,248.70
2023-04-26T06:42:19.435Z,249.22
2023-04-26T06:43:20.351Z,249.88
2023-04-26T06:44:20.354Z,249.19
2023-04-26T06:45:20.324Z,249.53
2023-04-26T06:46:20.410Z,248.59
2023-04-26T06:47:20.413Z,247.33
2023-04-26T06:48:20.328Z,250.00
2023-04-26T06:49:20.421Z,250.00
2023-04-26T06:50:20.296Z,402.83
2023-04-26T06:51:20.388Z,402.22
2023-04-26T06:52:21.513Z,293.84
2023-04-26T06:53:23.041Z,250.86
2023-04-26T06:54:20.805Z,237.20
2023-04-26T06:55:19.587Z,231.35
2023-04-26T06:56:20.450Z,227.03
2023-04-26T06:57:19.528Z,220.59
2023-04-26T06:58:20.983Z,220.25
2023-04-26T06:59:19.452Z,220.22
2023-04-26T07:00:19.432Z,218.82
2023-04-26T07:01:20.476Z,218.68
2023-04-26T07:02:20.537Z,216.57
2023-04-26T07:03:20.524Z,214.87
2023-04-26T07:04:19.721Z,208.92
2023-04-26T07:05:20.902Z,205.56
2023-04-26T07:06:19.412Z,199.84
2023-04-26T07:07:19.423Z,193.49
2023-04-26T07:08:20.395Z,198.48
2023-04-26T07:09:20.394Z,196.65
2023-04-26T07:10:20.365Z,199.58
2023-04-26T07:11:19.353Z,200.21
2023-04-26T07:12:19.336Z,203.67
2023-04-26T07:13:20.363Z,203.68
2023-04-26T07:14:20.380Z,204.81
2023-04-26T07:15:19.392Z,203.99
2023-04-26T07:16:20.363Z,201.65
2023-04-26T07:17:20.322Z,199.55
2023-04-26T07:18:20.468Z,197.22
2023-04-26T07:19:19.279Z,195.84
2023-04-26T07:20:20.337Z,195.81
2023-04-26T07:21:20.288Z,195.18
2023-04-26T07:22:19.414Z,194.72
2023-04-26T07:23:20.309Z,194.27
2023-04-26T07:24:19.256Z,193.74
2023-04-26T07:25:20.361Z,194.26
2023-04-26T07:26:20.226Z,193.94
2023-04-26T07:27:20.303Z,196.08
2023-04-26T07:28:19.211Z,196.88
2023-04-26T07:29:19.234Z,201.04
2023-04-26T07:30:20.202Z,199.27
2023-04-26T07:31:20.232Z,200.93
2023-04-26T07:32:20.228Z,201.61
2023-04-26T07:33:20.222Z,200.50
2023-04-26T07:34:20.245Z,202.80
2023-04-26T07:35:19.179Z,208.03
2023-04-26T07:36:20.661Z,207.38
2023-04-26T07:37:20.404Z,208.73
2023-04-26T07:38:20.401Z,208.23
2023-04-26T07:39:19.530Z,206.93
2023-04-26T07:40:20.778Z,208.62
2023-04-26T07:41:20.457Z,210.71
2023-04-26T07:42:20.445Z,213.81
2023-04-26T07:43:20.731Z,214.33
2023-04-26T07:44:19.916Z,216.44
2023-04-26T07:45:20.659Z,217.94
2023-04-26T07:46:20.782Z,217.53
2023-04-26T07:47:20.742Z,215.65
2023-04-26T07:48:21.004Z,214.68
2023-04-26T07:49:20.721Z,216.07
2023-04-26T07:50:20.712Z,219.30
2023-04-26T07:51:20.746Z,222.24
2023-04-26T07:52:19.716Z,220.93
2023-04-26T07:53:20.976Z,219.68
2023-04-26T07:54:20.738Z,218.65
2023-04-26T07:55:19.748Z,218.31
2023-04-26T07:56:20.697Z,218.29
2023-04-26T07:57:20.821Z,218.05
2023-04-26T07:58:20.757Z,216.89
2023-04-26T07:59:19.680Z,216.91
2023-04-26T08:00:19.678Z,215.95
2023-04-26T08:01:20.672Z,216.38
2023-04-26T08:02:21.729Z,215.25
2023-04-26T08:03:20.897Z,215.29
2023-04-26T08:04:20.728Z,215.32
2023-04-26T08:05:20.815Z,214.96
2023-04-26T08:06:19.775Z,213.68
2023-04-26T08:07:20.644Z,212.72
2023-04-26T08:08:20.681Z,213.28
2023-04-26T08:09:19.646Z,212.52
2023-04-26T08:10:20.622Z,212.07
2023-04-26T08:11:20.711Z,211.37
2023-04-26T08:12:20.609Z,209.29
2023-04-26T08:13:19.635Z,208.70
2023-04-26T08:14:19.585Z,208.25
2023-04-26T08:15:19.602Z,208.47
2023-04-26T08:16:20.651Z,208.60
2023-04-26T08:17:20.655Z,208.61
2023-04-26T08:18:20.607Z,207.70
2023-04-26T08:19:19.543Z,207.08
2023-04-26T08:20:19.561Z,207.18
2023-04-26T08:21:19.550Z,206.37
2023-04-26T08:22:19.538Z,205.19
2023-04-26T08:23:20.534Z,205.30
2023-04-26T08:24:19.611Z,204.98
2023-04-26T08:25:20.620Z,204.38
2023-04-26T08:26:19.641Z,204.30
2023-04-26T08:27:19.715Z,203.32
2023-04-26T08:28:21.028Z,204.05
2023-04-26T08:29:19.854Z,203.57
2023-04-26T08:30:20.811Z,203.29
2023-04-26T08:31:20.992Z,202.16
2023-04-26T08:32:19.900Z,201.35
2023-04-26T08:33:20.918Z,200.00
2023-04-26T08:34:19.916Z,195.91
2023-04-26T08:35:19.965Z,191.04
2023-04-26T08:36:21.015Z,189.56
2023-04-26T08:37:20.012Z,190.20
2023-04-26T08:38:21.068Z,189.51
2023-04-26T08:39:21.042Z,186.47
2023-04-26T08:40:21.072Z,186.38
2023-04-26T08:41:21.083Z,185.96
2023-04-26T08:42:21.116Z,188.69
2023-04-26T08:43:20.171Z,189.18
2023-04-26T08:44:20.174Z,188.34
2023-04-26T08:45:21.340Z,190.39
2023-04-26T08:46:21.182Z,189.13
2023-04-26T08:47:21.193Z,188.05
2023-04-26T08:48:20.177Z,190.78
2023-04-26T08:49:21.232Z,189.39
2023-04-26T08:50:21.217Z,187.59
2023-04-26T08:51:20.225Z,188.42
2023-04-26T08:52:21.220Z,190.13
2023-04-26T08:53:20.223Z,185.67
2023-04-26T08:54:20.221Z,183.32
2023-04-26T08:55:21.192Z,189.62
2023-04-26T08:56:21.329Z,187.73
2023-04-26T08:57:21.270Z,190.39
2023-04-26T08:58:21.630Z,186.99
2023-04-26T08:59:21.207Z,183.92
2023-04-26T09:00:21.252Z,186.87
2023-04-26T09:01:20.303Z,185.61
2023-04-26T09:02:20.343Z,183.97
2023-04-26T09:03:21.306Z,184.48
2023-04-26T09:04:21.503Z,185.47
2023-04-26T09:05:20.286Z,183.48
2023-04-26T09:06:21.241Z,184.14
2023-04-26T09:07:21.260Z,181.79
2023-04-26T09:08:21.259Z,181.33
2023-04-26T09:09:20.270Z,184.59
2023-04-26T09:10:21.628Z,180.03
2023-04-26T09:11:21.284Z,181.24
2023-04-26T09:12:21.291Z,180.24
2023-04-26T09:13:21.501Z,178.96
2023-04-26T09:14:21.291Z,180.35
2023-04-26T09:15:20.275Z,178.54
2023-04-26T09:16:20.334Z,179.98
2023-04-26T09:17:21.442Z,179.96
2023-04-26T09:18:21.237Z,178.50
2023-04-26T09:19:21.268Z,177.57
2023-04-26T09:20:21.288Z,174.70
2023-04-26T09:21:21.274Z,180.18
2023-04-26T09:22:21.249Z,176.77
2023-04-26T09:23:21.346Z,173.14
2023-04-26T09:24:20.238Z,170.87
2023-04-26T09:25:22.679Z,171.62
2023-04-26T09:26:21.234Z,171.73
2023-04-26T09:27:21.282Z,145.60
2023-04-26T09:28:20.229Z,109.07
2023-04-26T09:29:21.266Z,79.98
2023-04-26T09:30:21.195Z,60.90
2023-04-26T09:31:20.229Z,52.06
2023-04-26T09:32:21.207Z,40.74
2023-04-26T09:33:21.221Z,47.35
2023-04-26T09:34:21.198Z,44.55
2023-04-26T09:35:21.227Z,57.18
2023-04-26T09:36:21.163Z,43.66
2023-04-26T09:37:21.162Z,38.41
2023-04-26T09:38:21.149Z,31.72
2023-04-26T09:39:21.150Z,33.83
2023-04-26T09:40:21.162Z,31.50
2023-04-26T09:41:21.182Z,28.19
2023-04-26T09:42:20.147Z,30.72
2023-04-26T09:43:21.118Z,34.79
2023-04-26T09:44:21.094Z,28.26
2023-04-26T09:45:21.078Z,27.48
2023-04-26T09:46:21.105Z,36.41
2023-04-26T09:47:20.147Z,23.77
2023-04-26T09:48:20.088Z,15.86
2023-04-26T09:49:21.554Z,24.60
2023-04-26T09:50:20.104Z,23.21
2023-04-26T09:51:20.079Z,25.00
2023-04-26T09:52:21.050Z,28.37
2023-04-26T09:53:21.573Z,33.54
2023-04-26T09:54:21.059Z,40.51
2023-04-26T09:55:34.100Z,37.51
2023-04-26T09:56:21.091Z,37.74
2023-04-26T09:57:21.297Z,39.59
2023-04-26T09:58:21.071Z,42.72
2023-04-26T09:59:20.990Z,45.65
2023-04-26T10:00:20.979Z,53.42
2023-04-26T10:01:20.159Z,55.34
2023-04-26T10:02:20.075Z,50.45
2023-04-26T10:03:21.117Z,60.70
2023-04-26T10:04:21.029Z,62.68
2023-04-26T10:05:22.128Z,55.48
2023-04-26T10:06:20.075Z,59.74
2023-04-26T10:07:19.936Z,54.22
2023-04-26T10:08:20.922Z,58.60
2023-04-26T10:09:20.949Z,59.90
2023-04-26T10:10:19.932Z,61.48
2023-04-26T10:11:20.939Z,58.35
2023-04-26T10:12:19.959Z,61.16
2023-04-26T10:13:19.906Z,64.43
2023-04-26T10:14:21.262Z,59.72
2023-04-26T10:15:21.073Z,61.07
2023-04-26T10:16:19.971Z,62.93
2023-04-26T10:17:21.244Z,65.56
2023-04-26T10:18:20.892Z,65.84
2023-04-26T10:19:20.881Z,70.62
2023-04-26T10:20:20.880Z,71.53
2023-04-26T10:21:20.854Z,63.53
2023-04-26T10:22:20.832Z,66.26
2023-04-26T10:23:20.931Z,67.97
2023-04-26T10:24:20.845Z,68.10
2023-04-26T10:25:19.870Z,60.73
2023-04-26T10:26:19.861Z,57.78
2023-04-26T10:27:20.943Z,66.40
2023-04-26T10:28:19.921Z,69.11
2023-04-26T10:29:20.904Z,71.92
2023-04-26T10:30:20.964Z,72.21
2023-04-26T10:31:20.990Z,70.49
2023-04-26T10:32:20.932Z,71.13
2023-04-26T10:33:19.951Z,74.08
2023-04-26T10:34:20.917Z,71.63
2023-04-26T10:35:20.931Z,67.60
2023-04-26T10:36:20.936Z,67.61
2023-04-26T10:37:21.050Z,71.00
2023-04-26T10:38:21.209Z,72.87
2023-04-26T10:39:20.937Z,68.14
2023-04-26T10:40:20.924Z,68.88
2023-04-26T10:41:20.945Z,62.37
2023-04-26T10:42:21.944Z,63.13
2023-04-26T10:43:19.976Z,68.49
2023-04-26T10:44:20.914Z,52.53
2023-04-26T10:45:20.968Z,58.43
2023-04-26T10:46:20.893Z,60.96
2023-04-26T10:47:19.903Z,61.00
2023-04-26T10:48:20.909Z,60.18
2023-04-26T10:49:20.890Z,55.70
2023-04-26T10:50:20.869Z,66.24
2023-04-26T10:51:20.846Z,66.27
2023-04-26T10:52:19.873Z,63.58
2023-04-26T10:53:19.874Z,63.39
2023-04-26T10:54:19.864Z,62.65
2023-04-26T10:55:19.839Z,56.88
2023-04-26T10:56:20.812Z,56.42
2023-04-26T10:57:19.823Z,58.89
2023-04-26T10:58:19.797Z,61.62
2023-04-26T10:59:36.105Z,57.67
2023-04-26T11:00:20.825Z,57.72
2023-04-26T11:01:20.819Z,57.62
2023-04-26T11:02:20.798Z,55.69
2023-04-26T11:03:20.986Z,58.14
2023-04-26T11:04:20.952Z,51.50
2023-04-26T11:05:20.745Z,57.30
2023-04-26T11:06:20.739Z,52.45
2023-04-26T11:07:20.742Z,40.07
2023-04-26T11:08:20.727Z,45.78
2023-04-26T11:09:20.796Z,48.49
2023-04-26T11:10:20.726Z,49.80
2023-04-26T11:11:19.724Z,46.98
2023-04-26T11:12:19.829Z,44.27
2023-04-26T11:13:20.717Z,44.18
2023-04-26T11:14:20.683Z,44.50
2023-04-26T11:15:19.683Z,37.94
2023-04-26T11:16:20.776Z,45.86
2023-04-26T11:17:20.729Z,47.31
2023-04-26T11:18:19.678Z,46.66
2023-04-26T11:19:20.696Z,46.43
2023-04-26T11:20:19.663Z,50.81
2023-04-26T11:21:19.635Z,57.11
2023-04-26T11:22:19.664Z,63.19
2023-04-26T11:23:20.619Z,53.69
2023-04-26T11:24:19.614Z,47.04
2023-04-26T11:25:20.772Z,44.90
2023-04-26T11:26:20.619Z,50.66
2023-04-26T11:27:20.629Z,47.71
2023-04-26T11:28:20.631Z,44.97
2023-04-26T11:29:19.658Z,44.52
2023-04-26T11:30:20.644Z,29.45
2023-04-26T11:31:20.605Z,29.76
2023-04-26T11:32:19.569Z,36.59
2023-04-26T11:33:20.620Z,37.94
2023-04-26T11:34:19.582Z,49.83
2023-04-26T11:35:20.606Z,52.83
2023-04-26T11:36:19.667Z,62.62
2023-04-26T11:37:20.551Z,63.31
2023-04-26T11:38:20.529Z,62.92
2023-04-26T11:39:20.536Z,70.22
2023-04-26T11:40:20.551Z,74.56
2023-04-26T11:41:20.604Z,79.81
2023-04-26T11:42:20.516Z,79.84
2023-04-26T11:43:19.587Z,87.83
2023-04-26T11:44:20.481Z,81.71
2023-04-26T11:45:20.487Z,84.33
2023-04-26T11:46:20.579Z,89.05
2023-04-26T11:47:19.511Z,90.93
2023-04-26T11:48:19.600Z,88.46
2023-04-26T11:49:20.482Z,89.85
2023-04-26T11:50:19.467Z,88.74
2023-04-26T11:51:20.426Z,89.90
2023-04-26T11:52:20.536Z,90.76
2023-04-26T11:53:20.425Z,91.15
2023-04-26T11:54:20.432Z,91.98
2023-04-26T11:55:20.439Z,94.60
2023-04-26T11:56:20.444Z,94.81
2023-04-26T11:57:19.571Z,93.85
2023-04-26T11:58:20.383Z,96.05
2023-04-26T11:59:19.406Z,97.00
2023-04-26T12:00:20.390Z,96.77
2023-04-26T12:01:20.363Z,97.76
2023-04-26T12:02:19.522Z,98.91
2023-04-26T12:03:19.501Z,100.28
2023-04-26T12:04:20.639Z,100.12
2023-04-26T12:05:19.389Z,100.00
2023-04-26T12:06:19.351Z,101.05
2023-04-26T12:07:20.357Z,102.60
2023-04-26T12:08:19.322Z,102.79
2023-04-26T12:09:19.312Z,104.21
2023-04-26T12:10:20.321Z,103.21
2023-04-26T12:11:19.317Z,105.52
2023-04-26T12:12:19.336Z,105.56
2023-04-26T12:13:20.323Z,105.83
2023-04-26T12:14:20.280Z,106.48
2023-04-26T12:15:19.278Z,107.18
2023-04-26T12:16:26.250Z,107.81
2023-04-26T12:17:20.409Z,107.97
2023-04-26T12:18:19.300Z,108.45
2023-04-26T12:19:19.250Z,108.87
2023-04-26T12:20:19.582Z,109.45
2023-04-26T12:21:20.218Z,109.96
2023-04-26T12:22:19.283Z,110.31
2023-04-26T12:23:19.331Z,110.77
2023-04-26T12:24:19.373Z,110.69
2023-04-26T12:25:20.241Z,113.30
2023-04-26T12:26:20.194Z,112.44
2023-04-26T12:27:19.185Z,106.10
2023-04-26T12:28:20.201Z,108.69
2023-04-26T12:29:20.236Z,105.53
2023-04-26T12:30:19.173Z,106.20
2023-04-26T12:31:20.198Z,107.10
2023-04-26T12:32:20.781Z,105.49
2023-04-26T12:33:19.171Z,105.64
2023-04-26T12:34:20.272Z,106.38